Time;durP1;ratioP1;P1;durP2;ratioP2;P2;SDS_P1;SDS_P2;PMS_P1;PMS_P2;Temp;Humidity;BMP_temperature;BMP_pressure;BME280_temperature;BME280_humidity;BME280_pressure;Samples;Min_cycle;Max_cycle;Signal;HPM_P1;HPM_P2
2022/11/04 00:02:03;;;;;;;2.95;1.45;;;;;;;10.27;100.00;100068.91;5136282;27;20047;-78
2022/11/04 00:04:29;;;;;;;3.95;1.35;;;;;;;10.26;100.00;100072.75;5136567;27;20043;-78
2022/11/04 00:06:56;;;;;;;3.53;1.27;;;;;;;10.25;100.00;100072.03;5136253;27;20073;-78
2022/11/04 00:09:26;;;;;;;7.97;1.40;;;;;;;10.26;100.00;100083.41;5135899;27;20078;-78
2022/11/04 00:14:38;;;;;;;2.33;1.13;;;;;;;10.24;100.00;100089.16;5136558;27;20040;-78
2022/11/04 00:17:23;;;;;;;2.65;1.27;;;;;;;10.24;100.00;100088.44;5136066;27;20111;-77
2022/11/04 00:33:24;;;;;;;2.75;1.52;;;;;;;10.17;100.00;100097.44;5136208;27;20070;-78
2022/11/04 00:33:47;;;;;;;5.43;2.00;;;;;;;10.14;100.00;100101.00;5136060;27;20078;-78
2022/11/04 00:36:14;;;;;;;1.75;1.52;;;;;;;10.11;100.00;100109.88;5135615;27;20507;-78
2022/11/04 00:38:41;;;;;;;4.60;1.70;;;;;;;10.12;100.00;100119.34;5134763;27;20450;-78
2022/11/04 00:41:24;;;;;;;2.45;2.05;;;;;;;10.09;100.00;100114.91;5135067;27;20265;-78
2022/11/04 00:43:58;;;;;;;5.47;2.17;;;;;;;10.09;100.00;100124.81;5135491;27;20046;-77
2022/11/04 00:46:26;;;;;;;4.13;1.85;;;;;;;10.10;100.00;100123.63;5135893;27;20119;-77
2022/11/04 00:48:53;;;;;;;2.70;1.75;;;;;;;10.08;100.00;100128.66;5135713;27;20043;-77
2022/11/04 00:51:20;;;;;;;3.35;2.20;;;;;;;10.06;100.00;100123.06;5135572;27;20110;-77
2022/11/04 00:53:47;;;;;;;4.00;2.10;;;;;;;10.06;100.00;100131.78;5135174;27;20051;-77
2022/11/04 00:56:14;;;;;;;4.82;2.10;;;;;;;10.05;100.00;100127.63;5135427;27;20111;-77
2022/11/04 00:58:40;;;;;;;2.70;2.00;;;;;;;10.03;100.00;100132.66;5135731;27;20091;-78
2022/11/04 01:01:08;;;;;;;2.40;2.20;;;;;;;10.02;100.00;100136.53;5135369;27;20095;-78
2022/11/04 01:03:35;;;;;;;4.38;2.50;;;;;;;10.00;100.00;100142.28;5135584;27;20101;-78
2022/11/04 01:06:02;;;;;;;3.55;2.55;;;;;;;9.98;100.00;100135.97;5135225;27;20044;-77
2022/11/04 01:08:28;;;;;;;3.17;2.50;;;;;;;9.98;100.00;100141.28;5134292;27;20079;-78
2022/11/04 01:10:55;;;;;;;5.95;2.72;;;;;;;9.98;100.00;100149.25;5135366;27;20048;-78
2022/11/04 01:13:21;;;;;;;6.05;2.85;;;;;;;9.98;100.00;100155.31;5135106;27;20050;-78
2022/11/04 01:15:47;;;;;;;9.23;2.90;;;;;;;9.99;100.00;100161.38;5135412;27;20040;-78
2022/11/04 01:18:14;;;;;;;3.33;2.65;;;;;;;9.98;100.00;100165.22;5134835;27;20054;-78
2022/11/04 01:20:40;;;;;;;3.45;3.08;;;;;;;9.96;100.00;100168.31;5135282;27;20118;-78
2022/11/04 01:23:07;;;;;;;4.32;3.45;;;;;;;9.97;100.00;100175.13;5134484;27;20050;-78
2022/11/04 01:25:33;;;;;;;7.80;3.10;;;;;;;9.97;100.00;100179.69;5134163;27;20056;-78
2022/11/04 01:27:59;;;;;;;3.53;3.20;;;;;;;9.96;100.00;100186.19;5135147;27;20040;-78
2022/11/04 01:30:26;;;;;;;3.25;3.05;;;;;;;9.97;100.00;100190.34;5134856;27;20502;-78
2022/11/04 01:32:52;;;;;;;4.35;2.80;;;;;;;9.97;100.00;100185.00;5135006;27;20119;-77
2022/11/04 01:35:19;;;;;;;2.97;2.65;;;;;;;9.92;100.00;100188.28;5135033;27;20119;-78
2022/11/04 01:37:45;;;;;;;2.33;2.00;;;;;;;9.85;100.00;100193.91;5134654;27;20122;-78
2022/11/04 01:40:11;;;;;;;3.53;1.75;;;;;;;9.83;100.00;100196.25;5134369;27;20063;-78
2022/11/04 01:42:38;;;;;;;2.10;1.90;;;;;;;9.77;100.00;100204.09;5135122;27;20050;-78
2022/11/04 01:45:13;;;;;;;4.10;1.73;;;;;;;9.74;100.00;100209.56;5134802;27;20039;-78
2022/11/04 01:47:42;;;;;;;2.90;1.80;;;;;;;9.69;100.00;100211.66;5133556;27;20067;-78
2022/11/04 01:50:19;;;;;;;2.67;1.83;;;;;;;9.63;100.00;100213.41;5134406;27;20131;-78
2022/11/04 01:53:15;;;;;;;1.60;1.33;;;;;;;9.57;100.00;100209.91;5132971;27;20131;-78
2022/11/04 01:55:48;;;;;;;2.40;1.40;;;;;;;9.53;100.00;100211.97;5130718;27;20083;-78
2022/11/04 01:58:17;;;;;;;1.50;1.40;;;;;;;9.49;100.00;100206.06;5134695;27;20054;-78
2022/11/04 02:00:43;;;;;;;1.20;1.10;;;;;;;9.47;100.00;100213.75;5133133;27;20078;-78
2022/11/04 02:03:19;;;;;;;3.40;1.38;;;;;;;9.48;100.00;100225.09;5134527;27;20111;-77
2022/11/04 02:05:47;;;;;;;1.45;1.20;;;;;;;9.47;100.00;100234.25;5134805;27;20047;-76
2022/11/04 02:08:16;;;;;;;3.25;1.00;;;;;;;9.47;100.00;100224.38;5134186;27;20122;-76
2022/11/04 02:10:49;;;;;;;3.65;0.82;;;;;;;9.47;100.00;100232.34;5134240;27;20074;-76
2022/11/04 02:13:16;;;;;;;2.13;1.20;;;;;;;9.49;100.00;100234.56;5134414;27;20522;-76
2022/11/04 02:16:17;;;;;;;2.92;1.15;;;;;;;9.44;100.00;100241.19;5132906;27;20086;-76
2022/11/04 02:18:58;;;;;;;1.48;1.30;;;;;;;9.43;100.00;100238.97;5132970;27;20122;-76
2022/11/04 02:22:02;;;;;;;2.40;1.50;;;;;;;9.39;100.00;100243.69;5131982;27;20068;-76
2022/11/04 02:24:47;;;;;;;1.98;1.20;;;;;;;9.36;100.00;100246.06;5132979;27;20122;-76
2022/11/04 02:27:42;;;;;;;1.45;1.02;;;;;;;9.30;100.00;100253.13;5134114;27;20086;-76
2022/11/04 02:30:11;;;;;;;2.67;1.25;;;;;;;9.26;100.00;100257.84;5132355;27;20047;-77
2022/11/04 02:32:47;;;;;;;2.95;1.23;;;;;;;9.23;100.00;100261.38;5133976;27;20178;-77
2022/11/04 02:35:16;;;;;;;2.28;1.10;;;;;;;9.21;100.00;100266.41;5133530;27;20050;-77
2022/11/04 02:38:19;;;;;;;1.25;1.15;;;;;;;9.18;100.00;100262.00;5134167;27;20040;-77
2022/11/04 02:41:24;;;;;;;3.95;1.73;;;;;;;9.17;100.00;100273.78;5134401;27;20043;-76
2022/11/04 02:44:15;;;;;;;1.63;1.52;;;;;;;9.17;100.00;100275.72;5134131;27;20548;-77
2022/11/04 02:46:50;;;;;;;1.38;1.38;;;;;;;9.18;100.00;100279.84;5133601;27;20088;-76
2022/11/04 02:49:27;;;;;;;1.55;1.38;;;;;;;9.21;100.00;100289.56;5132200;27;20104;-76
2022/11/04 02:52:10;;;;;;;6.15;1.48;;;;;;;9.20;100.00;100294.13;5133963;27;20031;-77
2022/11/04 02:54:49;;;;;;;3.38;1.45;;;;;;;9.18;100.00;100301.09;5132437;27;20550;-77
2022/11/04 02:57:24;;;;;;;1.80;1.38;;;;;;;9.17;100.00;100296.97;5132093;27;20082;-77
2022/11/04 03:00:20;;;;;;;3.78;1.38;;;;;;;9.18;100.00;100299.19;5134084;27;20043;-77
2022/11/04 03:02:58;;;;;;;3.05;1.45;;;;;;;9.18;100.00;100296.53;5132323;27;20051;-77
2022/11/04 03:05:29;;;;;;;5.13;1.73;;;;;;;9.19;100.00;100303.31;5133415;27;20119;-77
2022/11/04 03:08:13;;;;;;;2.22;1.63;;;;;;;9.18;100.00;100303.75;5133858;27;20550;-77
2022/11/04 03:10:47;;;;;;;5.97;1.83;;;;;;;9.18;100.00;100298.44;5132679;27;20519;-75
2022/11/04 03:13:19;;;;;;;6.13;1.42;;;;;;;9.16;100.00;100308.75;5132086;27;20047;-76
2022/11/04 03:16:16;;;;;;;3.35;1.92;;;;;;;9.16;100.00;100317.47;5132304;27;20071;-76
2022/11/04 03:19:01;;;;;;;6.07;1.77;;;;;;;9.12;100.00;100318.78;5131964;27;20143;-76
2022/11/04 03:21:32;;;;;;;2.42;1.70;;;;;;;9.07;100.00;100314.03;5133568;27;20500;-76
2022/11/04 03:24:00;;;;;;;2.70;1.77;;;;;;;9.07;100.00;100320.09;5132994;27;20044;-76
2022/11/04 03:26:40;;;;;;;2.83;1.50;;;;;;;9.03;100.00;100322.88;5133531;27;20052;-76
2022/11/04 03:29:27;;;;;;;1.92;1.65;;;;;;;9.03;100.00;100330.09;5133233;27;20087;-76
2022/11/04 03:32:06;;;;;;;2.75;1.70;;;;;;;8.96;100.00;100333.78;5136414;27;20575;-77
2022/11/04 03:34:32;;;;;;;4.68;1.70;;;;;;;8.95;100.00;100344.81;5136622;27;20485;-76
2022/11/04 03:36:59;;;;;;;1.95;1.42;;;;;;;8.90;100.00;100343.47;5136167;27;20116;-77
2022/11/04 03:39:26;;;;;;;2.83;2.17;;;;;;;8.90;100.00;100343.47;5136868;27;20048;-76
2022/11/04 03:41:56;;;;;;;3.85;1.80;;;;;;;8.90;100.00;100338.16;5136936;27;20044;-76
2022/11/04 03:44:23;;;;;;;2.20;1.65;;;;;;;8.88;100.00;100343.16;5136765;27;20493;-76
2022/11/04 03:46:53;;;;;;;4.55;2.08;;;;;;;8.85;100.00;100352.00;5135705;27;20100;-76
2022/11/04 03:49:21;;;;;;;1.90;1.80;;;;;;;8.79;100.00;100359.09;5135892;27;20048;-76
2022/11/04 03:51:49;;;;;;;5.43;2.15;;;;;;;8.74;100.00;100358.91;5136648;27;20455;-76
2022/11/04 03:54:17;;;;;;;2.65;1.90;;;;;;;8.69;100.00;100357.56;5136742;27;20071;-77
2022/11/04 03:56:58;;;;;;;6.18;2.33;;;;;;;8.64;100.00;100358.84;5136522;27;20050;-76
2022/11/04 03:59:47;;;;;;;2.83;2.30;;;;;;;8.64;100.00;100353.56;5136871;27;20075;-77
2022/11/04 04:02:29;;;;;;;2.75;2.55;;;;;;;8.59;100.00;100353.38;5135072;27;20126;-76
2022/11/04 04:05:00;;;;;;;2.83;2.42;;;;;;;8.54;100.00;100351.28;5136726;27;20081;-77
2022/11/04 04:07:47;;;;;;;2.65;2.53;;;;;;;8.49;100.00;100357.88;5136612;27;20043;-76
2022/11/04 04:10:37;;;;;;;2.92;2.65;;;;;;;8.44;100.00;100360.34;5134640;27;20071;-76
2022/11/04 04:13:42;;;;;;;6.25;2.80;;;;;;;8.39;100.00;100364.31;5136376;27;20050;-77
2022/11/04 04:16:17;;;;;;;6.25;3.60;;;;;;;8.33;100.00;100364.13;5136324;27;20123;-77
2022/11/04 04:18:54;;;;;;;3.78;3.50;;;;;;;8.32;100.00;100367.19;5136000;27;20050;-77
2022/11/04 04:21:33;;;;;;;7.97;4.07;;;;;;;8.31;100.00;100363.78;5136522;27;20048;-77
2022/11/04 04:29:37;;;;;;;13.05;8.30;;;;;;;8.35;100.00;100374.31;5136221;27;20067;-76
2022/11/04 04:32:04;;;;;;;10.85;8.57;;;;;;;8.38;100.00;100370.06;5133911;27;20599;-77
2022/11/04 04:34:32;;;;;;;12.15;8.63;;;;;;;8.38;100.00;100375.38;5136047;27;20064;-77
2022/11/04 04:37:10;;;;;;;11.23;8.25;;;;;;;8.37;100.00;100379.19;5135845;27;20122;-77
2022/11/04 04:45:31;;;;;;;14.27;8.95;;;;;;;8.34;100.00;100392.13;5135679;27;20134;-77
2022/11/04 04:47:58;;;;;;;13.15;8.85;;;;;;;8.31;100.00;100397.53;5135427;27;20122;-77
2022/11/04 04:50:32;;;;;;;12.05;9.48;;;;;;;8.26;100.00;100395.44;5135839;27;20054;-76
2022/11/04 04:52:59;;;;;;;13.35;9.07;;;;;;;8.22;100.00;100400.84;5135524;27;20119;-77
2022/11/04 04:55:26;;;;;;;11.73;9.00;;;;;;;8.20;100.00;100405.84;5135540;27;20042;-76
2022/11/04 04:57:52;;;;;;;12.23;8.82;;;;;;;8.17;100.00;100404.06;5135611;27;20047;-77
2022/11/04 05:00:20;;;;;;;13.57;9.45;;;;;;;8.13;100.00;100408.72;5134512;27;20121;-77
2022/11/04 05:02:47;;;;;;;11.38;8.90;;;;;;;8.12;100.00;100407.25;5135473;27;20538;-77
2022/11/04 05:05:14;;;;;;;14.88;9.38;;;;;;;8.09;100.00;100405.47;5135230;27;20036;-77
2022/11/04 05:07:41;;;;;;;12.88;10.00;;;;;;;8.06;100.00;100406.31;5134209;27;20047;-77
2022/11/04 05:10:09;;;;;;;14.63;10.25;;;;;;;8.03;100.00;100412.47;5116460;27;20086;-77
2022/11/04 05:15:23;;;;;;;12.50;9.18;;;;;;;7.96;100.00;100421.44;5134684;27;20117;-77
2022/11/04 05:17:54;;;;;;;14.27;10.15;;;;;;;7.93;100.00;100416.97;5135503;27;20059;-77
2022/11/04 05:20:21;;;;;;;13.27;9.18;;;;;;;7.89;100.00;100413.69;5135350;27;20043;-76
2022/11/04 05:22:48;;;;;;;15.18;9.55;;;;;;;7.89;100.00;100416.34;5135563;27;20135;-76
2022/11/04 05:25:15;;;;;;;16.58;10.45;;;;;;;7.84;100.00;100411.59;5134734;27;20079;-76
2022/11/04 05:27:41;;;;;;;13.80;9.23;;;;;;;7.81;100.00;100417.75;5135204;27;20396;-76
2022/11/04 05:30:08;;;;;;;13.38;9.93;;;;;;;7.75;100.00;100419.44;5134373;27;20115;-77
2022/11/04 05:32:34;;;;;;;12.32;10.07;;;;;;;7.72;100.00;100424.84;5135212;27;20043;-77
2022/11/04 05:35:01;;;;;;;12.70;10.35;;;;;;;7.67;100.00;100431.44;5134592;27;20595;-76
2022/11/04 05:37:27;;;;;;;15.27;10.25;;;;;;;7.65;100.00;100434.50;5134943;27;20166;-76
2022/11/04 05:39:54;;;;;;;13.57;9.40;;;;;;;7.63;100.00;100434.19;5134860;27;20608;-77
2022/11/04 05:42:20;;;;;;;12.82;9.75;;;;;;;7.63;100.00;100442.13;5134825;27;20127;-77
2022/11/04 05:44:47;;;;;;;13.48;10.05;;;;;;;7.58;100.00;100434.75;5134468;27;20522;-77
2022/11/04 05:47:13;;;;;;;11.77;9.48;;;;;;;7.57;100.00;100438.56;5134853;27;20051;-77
2022/11/04 05:49:40;;;;;;;11.35;9.13;;;;;;;7.55;100.00;100437.50;5134966;27;20054;-78
2022/11/04 05:52:06;;;;;;;15.98;10.73;;;;;;;7.52;100.00;100439.09;5134312;27;20587;-77
2022/11/04 05:54:33;;;;;;;14.60;10.18;;;;;;;7.49;100.00;100445.25;5134179;27;20119;-77
2022/11/04 05:56:59;;;;;;;18.10;9.93;;;;;;;7.45;100.00;100441.94;5134894;27;20135;-77
2022/11/04 05:59:25;;;;;;;13.25;9.98;;;;;;;7.43;100.00;100457.53;5134212;27;20040;-77
2022/11/04 06:01:52;;;;;;;15.77;10.65;;;;;;;7.42;100.00;100458.69;5134571;27;20083;-77
2022/11/04 06:04:18;;;;;;;14.75;10.38;;;;;;;7.39;100.00;100469.38;5116500;27;20478;-77
2022/11/04 06:06:45;;;;;;;12.90;10.57;;;;;;;7.39;100.00;100475.41;5134989;27;20112;-77
2022/11/04 06:09:11;;;;;;;15.98;10.50;;;;;;;7.38;100.00;100475.84;5133858;27;20071;-77
2022/11/04 06:11:38;;;;;;;21.55;11.15;;;;;;;7.35;100.00;100480.81;5133117;27;20127;-77
2022/11/04 06:14:05;;;;;;;14.32;10.63;;;;;;;7.34;100.00;100481.25;5133995;27;20127;-77
2022/11/04 06:16:31;;;;;;;18.17;11.48;;;;;;;7.27;100.00;100482.19;5134494;27;20046;-77
2022/11/04 06:18:57;;;;;;;16.70;11.10;;;;;;;7.26;100.00;100493.19;5133907;27;20495;-77
2022/11/04 06:21:32;;;;;;;14.02;10.15;;;;;;;7.23;100.00;100491.38;5134503;27;20184;-76
2022/11/04 06:23:59;;;;;;;15.60;10.13;;;;;;;7.17;100.00;100499.13;5134426;27;20063;-78
2022/11/04 06:26:27;;;;;;;14.85;11.13;;;;;;;7.13;100.00;100500.41;5135112;27;20134;-77
2022/11/04 06:28:54;;;;;;;16.83;10.35;;;;;;;7.10;100.00;100493.28;5134322;27;20575;-76
2022/11/04 06:31:21;;;;;;;13.32;10.25;;;;;;;7.07;100.00;100500.16;5134860;27;20468;-78
2022/11/04 06:33:47;;;;;;;16.25;10.35;;;;;;;7.05;100.00;100499.84;5134106;27;20044;-76
2022/11/04 06:36:15;;;;;;;14.35;9.75;;;;;;;7.03;100.00;100497.63;5134800;27;20130;-77
2022/11/04 06:38:42;;;;;;;13.73;9.90;;;;;;;7.01;100.00;100502.59;5134634;27;20040;-78
2022/11/04 06:41:14;;;;;;;12.05;9.50;;;;;;;6.99;100.00;100507.56;5134247;27;20046;-78
2022/11/04 06:43:40;;;;;;;14.50;10.05;;;;;;;6.99;100.00;100509.47;5134250;27;20126;-77
2022/11/04 06:46:27;;;;;;;15.30;8.88;;;;;;;6.98;100.00;100506.06;5134498;27;20047;-77
2022/11/04 06:48:55;;;;;;;17.25;9.38;;;;;;;7.01;100.00;100509.78;5134727;27;20502;-77
2022/11/04 06:51:23;;;;;;;16.00;9.15;;;;;;;6.99;100.00;100510.22;5134454;27;20040;-77
2022/11/04 06:53:49;;;;;;;13.75;9.30;;;;;;;6.99;100.00;100512.84;5134626;27;20043;-77
2022/11/04 06:56:16;;;;;;;12.85;8.50;;;;;;;6.99;100.00;100514.75;5132989;27;20052;-78
2022/11/04 06:58:47;;;;;;;10.95;8.40;;;;;;;6.97;100.00;100517.06;5134196;27;20070;-78
2022/11/04 07:01:15;;;;;;;12.47;8.57;;;;;;;6.95;100.00;100514.84;5112424;28;20054;-78
2022/11/04 07:03:49;;;;;;;13.70;7.90;;;;;;;6.93;100.00;100519.81;5114056;28;20138;-77
2022/11/04 07:06:16;;;;;;;9.48;8.25;;;;;;;6.93;100.00;100522.47;5115397;27;20044;-77
2022/11/04 07:08:42;;;;;;;11.18;8.20;;;;;;;6.95;100.00;100525.44;5117249;27;20054;-79
2022/11/04 07:11:08;;;;;;;18.55;9.55;;;;;;;6.95;100.00;100530.00;5116695;27;20123;-80
2022/11/04 07:13:35;;;;;;;14.77;9.35;;;;;;;6.95;100.00;100525.44;5117383;27;20331;-77
2022/11/04 07:16:06;;;;;;;11.90;8.75;;;;;;;6.98;100.00;100524.59;5117202;27;20116;-77
2022/11/04 07:18:32;;;;;;;12.05;8.10;;;;;;;7.00;100.00;100516.97;5117325;27;20050;-77
2022/11/04 07:20:59;;;;;;;10.07;7.90;;;;;;;6.99;100.00;100523.44;5117270;27;20119;-77
2022/11/04 07:23:29;;;;;;;10.15;7.60;;;;;;;7.02;100.00;100532.44;5117174;27;20047;-77
2022/11/04 07:26:05;;;;;;;9.75;6.95;;;;;;;7.05;100.00;100536.16;5114728;27;20049;-77
2022/11/04 07:28:32;;;;;;;8.77;7.28;;;;;;;7.08;100.00;100530.78;5126866;27;20083;-77
2022/11/04 07:31:01;;;;;;;14.68;7.80;;;;;;;7.12;100.00;100538.63;5137398;27;20076;-77
2022/11/04 07:33:27;;;;;;;9.18;7.53;;;;;;;7.13;100.00;100535.56;5135958;27;20127;-77
2022/11/04 07:35:54;;;;;;;9.20;6.95;;;;;;;7.19;100.00;100543.72;5137713;27;20082;-77
2022/11/04 07:38:24;;;;;;;8.82;7.38;;;;;;;7.24;100.00;100551.13;5137104;27;20043;-77
2022/11/04 07:40:50;;;;;;;10.57;7.22;;;;;;;7.29;100.00;100550.59;5136609;27;20119;-77
2022/11/04 07:43:16;;;;;;;20.42;7.78;;;;;;;7.33;100.00;100557.28;5137316;27;20496;-77
2022/11/04 07:45:44;;;;;;;11.35;7.43;;;;;;;7.34;100.00;100560.69;5135972;27;20054;-77
2022/11/04 07:48:11;;;;;;;9.85;7.00;;;;;;;7.35;100.00;100551.56;5137533;27;20475;-76
2022/11/04 07:50:39;;;;;;;9.95;7.53;;;;;;;7.40;100.00;100553.72;5137103;27;20043;-77
2022/11/04 07:53:06;;;;;;;10.80;7.07;;;;;;;7.47;100.00;100552.78;5135543;27;20048;-79
2022/11/04 07:55:36;;;;;;;16.27;7.75;;;;;;;7.52;100.00;100558.28;5117992;27;20179;-77
2022/11/04 07:58:09;;;;;;;10.18;6.78;;;;;;;7.58;100.00;100559.25;5137466;27;20043;-78
2022/11/04 08:00:35;;;;;;;10.48;6.78;;;;;;;7.62;100.00;100561.78;5137055;27;20075;-76
2022/11/04 08:03:01;;;;;;;9.70;6.93;;;;;;;7.67;100.00;100563.91;5137150;27;20139;-77
2022/11/04 08:05:28;;;;;;;10.25;6.50;;;;;;;7.73;100.00;100575.47;5135211;27;20063;-77
2022/11/04 08:07:56;;;;;;;11.95;7.40;;;;;;;7.69;100.00;100575.56;5136948;27;20063;-77
2022/11/04 08:10:22;;;;;;;13.85;6.95;;;;;;;7.66;100.00;100592.31;5136223;27;20082;-76
2022/11/04 08:12:50;;;;;;;7.75;6.15;;;;;;;7.65;100.00;100590.06;5136919;27;20035;-77
2022/11/04 08:15:17;;;;;;;12.98;6.55;;;;;;;7.68;100.00;100586.59;5137003;27;20042;-77
2022/11/04 08:17:43;;;;;;;10.18;6.07;;;;;;;7.70;100.00;100598.25;5136422;27;20126;-77
2022/11/04 08:20:10;;;;;;;15.43;6.43;;;;;;;7.72;100.00;100600.47;5136663;27;20085;-78
2022/11/04 08:22:37;;;;;;;10.73;6.28;;;;;;;7.72;100.00;100602.38;5136609;27;20596;-77
2022/11/04 08:25:05;;;;;;;14.48;6.63;;;;;;;7.69;100.00;100596.03;5134423;27;20076;-77
2022/11/04 08:27:33;;;;;;;6.95;5.95;;;;;;;7.70;100.00;100605.44;5136239;27;20126;-77
2022/11/04 08:30:02;;;;;;;10.60;6.30;;;;;;;7.70;100.00;100611.50;5136526;27;20523;-79
2022/11/04 08:32:29;;;;;;;8.93;5.95;;;;;;;7.70;100.00;100610.75;5136565;27;20096;-79
2022/11/04 08:34:55;;;;;;;9.02;5.97;;;;;;;7.70;100.00;100618.69;5136640;27;20092;-78
2022/11/04 08:37:22;;;;;;;7.93;5.85;;;;;;;7.69;100.00;100619.88;5136345;27;20501;-78
2022/11/04 08:39:48;;;;;;;11.50;6.38;;;;;;;7.69;100.00;100619.88;5135814;27;20043;-78
2022/11/04 08:42:14;;;;;;;16.10;6.88;;;;;;;7.69;100.00;100625.91;5136555;27;20054;-78
2022/11/04 08:44:41;;;;;;;11.38;6.63;;;;;;;7.70;100.00;100640.63;5136490;27;20234;-79
2022/11/04 08:47:08;;;;;;;10.40;6.07;;;;;;;7.73;100.00;100640.97;5136085;27;20075;-78
2022/11/04 08:49:38;;;;;;;14.98;7.00;;;;;;;7.79;100.00;100641.94;5136342;27;20131;-78
2022/11/04 08:52:05;;;;;;;8.23;5.88;;;;;;;7.88;100.00;100644.72;5136577;27;20043;-79
2022/11/04 08:54:31;;;;;;;7.68;5.88;;;;;;;7.93;100.00;100647.56;5136395;27;20043;-79
2022/11/04 08:56:58;;;;;;;16.35;6.50;;;;;;;7.96;100.00;100654.69;5136111;27;20071;-80
2022/11/04 08:59:24;;;;;;;10.98;6.45;;;;;;;8.01;100.00;100661.34;5136047;27;20657;-79
2022/11/04 09:01:51;;;;;;;11.05;6.95;;;;;;;8.05;100.00;100656.69;5136078;27;20043;-79
2022/11/04 09:04:18;;;;;;;9.25;6.50;;;;;;;8.12;100.00;100656.47;5134498;27;20075;-80
2022/11/04 09:06:45;;;;;;;8.85;6.30;;;;;;;8.23;100.00;100658.81;5135555;27;20531;-79
2022/11/04 09:09:14;;;;;;;7.60;5.85;;;;;;;8.32;100.00;100656.28;5135734;27;20550;-81
2022/11/04 09:11:42;;;;;;;13.35;6.75;;;;;;;8.40;100.00;100665.50;5136111;27;20067;-83
2022/11/04 09:14:10;;;;;;;11.40;6.18;;;;;;;8.48;100.00;100660.75;5135983;27;20122;-80
2022/11/04 09:16:37;;;;;;;16.45;6.38;;;;;;;8.57;100.00;100671.44;5135768;27;20519;-79
2022/11/04 09:19:04;;;;;;;15.35;6.60;;;;;;;8.65;100.00;100670.06;5135543;27;20093;-79
2022/11/04 09:21:30;;;;;;;12.73;6.30;;;;;;;8.73;100.00;100679.28;5135083;27;20139;-78
2022/11/04 09:23:57;;;;;;;13.10;6.95;;;;;;;8.83;100.00;100680.84;5135372;27;20050;-78
2022/11/04 09:26:24;;;;;;;15.30;6.25;;;;;;;8.98;100.00;100692.50;5135250;27;20069;-79
2022/11/04 09:28:54;;;;;;;10.43;5.95;;;;;;;9.10;100.00;100692.91;5134569;27;20043;-79
2022/11/04 09:31:22;;;;;;;8.82;6.65;;;;;;;9.08;100.00;100697.91;5134364;27;20071;-81
2022/11/04 09:33:49;;;;;;;14.40;7.63;;;;;;;9.07;100.00;100707.03;5135400;27;20123;-80
2022/11/04 09:36:16;;;;;;;11.23;7.43;;;;;;;9.07;100.00;100699.81;5134923;27;20093;-80
2022/11/04 09:38:43;;;;;;;8.80;7.57;;;;;;;9.15;100.00;100714.34;5135319;27;20487;-82
2022/11/04 09:41:19;;;;;;;13.38;7.78;;;;;;;9.27;100.00;100710.16;5135351;27;20135;-79
2022/11/04 09:43:59;;;;;;;22.45;7.28;;;;;;;9.31;100.00;100710.78;5135126;27;20127;-80
2022/11/04 09:46:29;;;;;;;10.05;7.50;;;;;;;9.34;100.00;100712.56;5135737;27;20046;-80
2022/11/04 09:48:57;;;;;;;10.85;7.35;;;;;;;9.41;100.00;100709.69;5134165;27;20122;-79
2022/11/04 09:51:26;;;;;;;8.35;7.22;;;;;;;9.57;100.00;100714.81;5134386;27;20123;-78
2022/11/04 09:54:21;;;;;;;14.02;7.10;;;;;;;9.84;100.00;100721.47;5134893;27;20127;-79
2022/11/04 09:56:50;;;;;;;8.02;6.90;;;;;;;9.92;100.00;100730.69;5135159;27;20168;-79
2022/11/04 09:59:22;;;;;;;9.65;7.68;;;;;;;9.87;100.00;100723.28;5135034;27;20093;-78
2022/11/04 10:02:28;;;;;;;15.32;7.75;;;;;;;9.86;100.00;100727.84;5135234;27;20047;-79
2022/11/04 10:05:17;;;;;;;12.30;7.85;;;;;;;9.90;100.00;100728.47;5116942;27;20054;-79
2022/11/04 10:08:24;;;;;;;11.10;8.38;;;;;;;9.90;100.00;100725.81;5134981;27;20123;-77
2022/11/04 10:11:09;;;;;;;12.73;9.82;;;;;;;9.88;100.00;100738.06;5133368;27;20051;-79
2022/11/04 10:14:03;;;;;;;14.07;9.88;;;;;;;9.88;100.00;100735.41;5134964;27;20496;-80
2022/11/04 10:16:44;;;;;;;18.15;9.77;;;;;;;9.91;100.00;100742.50;5135204;27;20119;-80
2022/11/04 10:19:28;;;;;;;20.48;11.00;;;;;;;9.91;100.00;100758.47;5134330;27;20054;-80
2022/11/04 10:22:13;;;;;;;15.63;10.77;;;;;;;9.93;100.00;100761.44;5134999;27;20039;-78
2022/11/04 10:25:00;;;;;;;15.50;10.63;;;;;;;9.92;100.00;100758.03;5134272;27;20095;-81
2022/11/04 10:27:32;;;;;;;14.90;10.55;;;;;;;10.02;100.00;100762.22;5134772;27;20067;-80
2022/11/04 10:30:07;;;;;;;17.25;11.32;;;;;;;10.11;100.00;100774.06;5134768;27;20043;-80
2022/11/04 10:32:46;;;;;;;15.88;11.07;;;;;;;10.13;100.00;100767.16;5134519;27;20127;-80
2022/11/04 10:35:34;;;;;;;19.83;11.48;;;;;;;10.17;100.00;100775.75;5134476;27;20040;-80
2022/11/04 10:38:24;;;;;;;20.75;11.43;;;;;;;10.29;100.00;100771.56;5134731;27;20113;-82
2022/11/04 10:40:52;;;;;;;11.98;10.70;;;;;;;10.38;100.00;100771.59;5137007;27;20126;-83
2022/11/04 10:43:40;;;;;;;12.93;10.75;;;;;;;10.45;100.00;100771.31;5138111;27;20518;-77
2022/11/04 10:46:30;;;;;;;17.20;11.57;;;;;;;10.42;100.00;100776.78;5138280;27;20530;-87
2022/11/04 10:49:27;;;;;;;20.67;12.00;;;;;;;10.49;100.00;100777.25;5137900;27;20130;-78
2022/11/04 10:51:55;;;;;;;19.95;12.52;;;;;;;10.54;100.00;100775.94;5138316;27;20464;-85
2022/11/04 10:54:25;;;;;;;21.92;12.02;;;;;;;10.56;99.69;100778.91;5136618;27;20138;-83
2022/11/04 10:56:53;;;;;;;17.50;11.93;;;;;;;10.68;99.19;100778.09;5136471;27;20126;-83
2022/11/04 10:59:29;;;;;;;18.80;12.70;;;;;;;10.74;99.71;100786.97;5137606;27;20042;-83
2022/11/04 11:01:58;;;;;;;15.57;12.35;;;;;;;10.83;99.30;100792.31;5137322;27;20071;-84
2022/11/04 11:04:32;;;;;;;;;;;;;;;10.96;99.41;100805.53;5138067;27;20044;-83
2022/11/04 11:07:02;;;;;;;13.67;10.77;;;;;;;10.86;97.86;100812.75;5137762;27;20007;-83
2022/11/04 11:09:32;;;;;;;16.35;11.80;;;;;;;10.82;98.14;100812.13;5137411;27;20301;-83
2022/11/04 11:12:05;;;;;;;12.25;10.60;;;;;;;10.82;98.20;100822.03;5137621;27;20079;-81
2022/11/04 11:14:52;;;;;;;17.40;10.90;;;;;;;10.88;97.97;100828.28;5137628;27;20040;-80
2022/11/04 11:17:33;;;;;;;16.95;10.77;;;;;;;11.00;97.98;100830.84;5136389;27;20499;-81
2022/11/04 11:20:17;;;;;;;18.13;11.82;;;;;;;11.14;97.49;100821.56;5137843;27;20574;-80
2022/11/04 11:22:45;;;;;;;14.82;10.43;;;;;;;11.20;96.52;100824.38;5135807;27;20052;-81
2022/11/04 11:25:19;;;;;;;19.13;11.23;;;;;;;11.30;96.78;100823.22;5137027;27;20052;-86
2022/11/04 11:27:52;;;;;;;18.13;11.10;;;;;;;11.42;95.77;100822.34;5138351;27;20042;-86
2022/11/04 11:30:25;;;;;;;19.08;9.85;;;;;;;11.50;95.54;100820.88;5137537;27;20126;-83
2022/11/04 11:32:55;;;;;;;21.90;10.98;;;;;;;11.52;95.02;100815.09;5137077;27;20121;-82
2022/11/04 11:35:26;;;;;;;12.93;10.15;;;;;;;11.56;94.38;100821.03;5137082;27;20122;-77
2022/11/04 11:37:53;;;;;;;13.38;9.48;;;;;;;11.63;93.53;100813.47;5137397;27;20032;-77
2022/11/04 11:40:34;;;;;;;15.35;8.98;;;;;;;11.77;92.42;100811.44;5137498;27;20127;-78
2022/11/04 11:43:01;;;;;;;15.17;10.13;;;;;;;11.83;92.74;100818.41;5137537;27;20043;-80
2022/11/04 11:45:29;;;;;;;15.23;9.32;;;;;;;11.90;92.57;100817.34;5137258;27;20044;-77
2022/11/04 11:47:56;;;;;;;9.82;8.50;;;;;;;11.93;91.50;100819.88;5137048;27;20115;-77
2022/11/04 11:50:30;;;;;;;12.57;7.82;;;;;;;11.92;90.41;100820.31;5137221;27;20118;-78
2022/11/04 11:53:13;;;;;;;8.65;7.50;;;;;;;11.86;90.21;100825.50;5136498;27;20047;-77
2022/11/04 11:55:46;;;;;;;11.52;7.50;;;;;;;11.84;90.62;100837.81;5136057;27;20044;-78
2022/11/04 11:58:33;;;;;;;10.52;7.82;;;;;;;11.88;89.41;100833.06;5137194;27;20050;-78
2022/11/04 12:01:45;;;;;;;10.00;7.22;;;;;;;12.02;89.90;100840.44;5136491;27;20051;-81
2022/11/04 12:04:12;;;;;;;11.60;6.75;;;;;;;12.08;89.58;100830.66;5136866;27;20085;-82
2022/11/04 12:07:15;;;;;;;9.50;6.07;;;;;;;12.09;88.37;100823.41;5136698;27;20047;-81
2022/11/04 12:10:19;;;;;;;8.85;5.93;;;;;;;12.13;87.84;100837.31;5136758;27;20047;-80
2022/11/04 12:13:19;;;;;;;7.50;5.40;;;;;;;12.15;87.75;100848.28;5136256;27;20051;-80